sensor_id;sensor_type;location;lat;lon;timestamp;P1;durP1;ratioP1;P2;durP2;ratioP2
62693;SDS011;48759;52.544;13.418;2023-11-21T00:02:40;46.80;;;20.33;;
62693;SDS011;48759;52.544;13.418;2023-11-21T00:06:05;39.10;;;20.03;;
62693;SDS011;48759;52.544;13.418;2023-11-21T00:09:33;49.37;;;22.00;;
62693;SDS011;48759;52.544;13.418;2023-11-21T00:12:58;44.00;;;20.50;;
62693;SDS011;48759;52.544;13.418;2023-11-21T00:16:23;49.37;;;21.83;;
62693;SDS011;48759;52.544;13.418;2023-11-21T00:19:49;50.10;;;21.90;;
62693;SDS011;48759;52.544;13.418;2023-11-21T00:23:14;49.17;;;23.10;;
62693;SDS011;48759;52.544;13.418;2023-11-21T00:26:41;60.67;;;24.83;;
62693;SDS011;48759;52.544;13.418;2023-11-21T00:30:06;62.13;;;24.83;;
62693;SDS011;48759;52.544;13.418;2023-11-21T00:33:31;55.30;;;24.83;;
62693;SDS011;48759;52.544;13.418;2023-11-21T00:36:57;64.57;;;24.33;;
62693;SDS011;48759;52.544;13.418;2023-11-21T00:40:23;65.90;;;24.77;;
62693;SDS011;48759;52.544;13.418;2023-11-21T00:43:50;56.73;;;25.13;;
62693;SDS011;48759;52.544;13.418;2023-11-21T00:47:15;62.30;;;24.80;;
62693;SDS011;48759;52.544;13.418;2023-11-21T00:50:40;66.10;;;26.70;;
62693;SDS011;48759;52.544;13.418;2023-11-21T00:54:06;73.77;;;27.60;;
62693;SDS011;48759;52.544;13.418;2023-11-21T00:57:33;67.60;;;24.83;;
62693;SDS011;48759;52.544;13.418;2023-11-21T01:00:59;73.43;;;27.50;;
62693;SDS011;48759;52.544;13.418;2023-11-21T01:04:26;98.37;;;30.33;;
62693;SDS011;48759;52.544;13.418;2023-11-21T01:07:52;99.80;;;30.10;;
62693;SDS011;48759;52.544;13.418;2023-11-21T01:11:17;86.87;;;30.87;;
62693;SDS011;48759;52.544;13.418;2023-11-21T01:14:42;94.13;;;33.90;;
62693;SDS011;48759;52.544;13.418;2023-11-21T01:18:09;97.00;;;34.03;;
62693;SDS011;48759;52.544;13.418;2023-11-21T01:21:34;92.13;;;31.43;;
62693;SDS011;48759;52.544;13.418;2023-11-21T01:25:00;91.23;;;29.67;;
62693;SDS011;48759;52.544;13.418;2023-11-21T01:28:25;86.83;;;31.90;;
62693;SDS011;48759;52.544;13.418;2023-11-21T01:31:50;93.00;;;30.50;;
62693;SDS011;48759;52.544;13.418;2023-11-21T01:35:17;78.70;;;26.00;;
62693;SDS011;48759;52.544;13.418;2023-11-21T01:38:42;90.03;;;28.07;;
62693;SDS011;48759;52.544;13.418;2023-11-21T01:42:08;72.20;;;23.50;;
62693;SDS011;48759;52.544;13.418;2023-11-21T01:45:33;63.20;;;24.00;;
62693;SDS011;48759;52.544;13.418;2023-11-21T01:48:59;62.60;;;21.37;;
62693;SDS011;48759;52.544;13.418;2023-11-21T01:52:26;52.13;;;19.63;;
62693;SDS011;48759;52.544;13.418;2023-11-21T01:55:52;50.13;;;19.87;;
62693;SDS011;48759;52.544;13.418;2023-11-21T01:59:18;47.87;;;17.13;;
62693;SDS011;48759;52.544;13.418;2023-11-21T02:02:44;34.07;;;15.73;;
62693;SDS011;48759;52.544;13.418;2023-11-21T02:06:10;49.43;;;17.73;;
62693;SDS011;48759;52.544;13.418;2023-11-21T02:09:36;33.17;;;15.50;;
62693;SDS011;48759;52.544;13.418;2023-11-21T02:13:02;33.90;;;14.00;;
62693;SDS011;48759;52.544;13.418;2023-11-21T02:16:28;30.17;;;13.60;;
62693;SDS011;48759;52.544;13.418;2023-11-21T02:19:53;35.30;;;14.70;;
62693;SDS011;48759;52.544;13.418;2023-11-21T02:23:20;32.77;;;13.30;;
62693;SDS011;48759;52.544;13.418;2023-11-21T02:26:45;30.20;;;13.47;;
62693;SDS011;48759;52.544;13.418;2023-11-21T02:30:13;25.10;;;12.27;;
62693;SDS011;48759;52.544;13.418;2023-11-21T02:33:38;24.50;;;12.73;;
62693;SDS011;48759;52.544;13.418;2023-11-21T02:37:04;21.67;;;12.50;;
62693;SDS011;48759;52.544;13.418;2023-11-21T02:40:31;28.70;;;12.73;;
62693;SDS011;48759;52.544;13.418;2023-11-21T02:43:56;21.73;;;13.03;;
62693;SDS011;48759;52.544;13.418;2023-11-21T02:47:22;26.43;;;13.73;;
62693;SDS011;48759;52.544;13.418;2023-11-21T02:50:49;29.23;;;14.23;;
62693;SDS011;48759;52.544;13.418;2023-11-21T02:54:14;20.03;;;13.03;;
62693;SDS011;48759;52.544;13.418;2023-11-21T02:57:40;25.07;;;14.13;;
62693;SDS011;48759;52.544;13.418;2023-11-21T03:01:08;22.70;;;13.57;;
62693;SDS011;48759;52.544;13.418;2023-11-21T03:04:34;25.43;;;14.30;;
62693;SDS011;48759;52.544;13.418;2023-11-21T03:08:00;20.73;;;13.73;;
62693;SDS011;48759;52.544;13.418;2023-11-21T03:11:26;26.40;;;14.50;;
62693;SDS011;48759;52.544;13.418;2023-11-21T03:14:52;18.70;;;11.90;;
62693;SDS011;48759;52.544;13.418;2023-11-21T03:18:17;18.50;;;11.80;;
62693;SDS011;48759;52.544;13.418;2023-11-21T03:21:43;15.97;;;11.80;;
62693;SDS011;48759;52.544;13.418;2023-11-21T03:25:08;14.60;;;10.70;;
62693;SDS011;48759;52.544;13.418;2023-11-21T03:28:37;15.40;;;11.10;;
62693;SDS011;48759;52.544;13.418;2023-11-21T03:32:04;15.70;;;10.43;;
62693;SDS011;48759;52.544;13.418;2023-11-21T03:35:30;14.43;;;10.73;;
62693;SDS011;48759;52.544;13.418;2023-11-21T03:38:55;13.67;;;9.93;;
62693;SDS011;48759;52.544;13.418;2023-11-21T03:42:21;15.03;;;10.77;;
62693;SDS011;48759;52.544;13.418;2023-11-21T03:45:46;15.27;;;10.60;;
62693;SDS011;48759;52.544;13.418;2023-11-21T03:49:12;15.30;;;10.37;;
62693;SDS011;48759;52.544;13.418;2023-11-21T03:52:38;13.30;;;9.33;;
62693;SDS011;48759;52.544;13.418;2023-11-21T03:56:04;12.97;;;10.17;;
62693;SDS011;48759;52.544;13.418;2023-11-21T03:59:30;15.90;;;10.63;;
62693;SDS011;48759;52.544;13.418;2023-11-21T04:02:55;16.07;;;10.43;;
62693;SDS011;48759;52.544;13.418;2023-11-21T04:06:23;14.50;;;9.07;;
62693;SDS011;48759;52.544;13.418;2023-11-21T04:09:48;13.67;;;9.93;;
62693;SDS011;48759;52.544;13.418;2023-11-21T04:13:14;15.47;;;10.30;;
62693;SDS011;48759;52.544;13.418;2023-11-21T04:16:40;12.70;;;8.77;;
62693;SDS011;48759;52.544;13.418;2023-11-21T04:20:06;12.43;;;9.57;;
62693;SDS011;48759;52.544;13.418;2023-11-21T04:23:34;12.00;;;8.90;;
62693;SDS011;48759;52.544;13.418;2023-11-21T04:26:59;10.57;;;7.70;;
62693;SDS011;48759;52.544;13.418;2023-11-21T04:30:25;13.20;;;8.53;;
62693;SDS011;48759;52.544;13.418;2023-11-21T04:33:50;13.97;;;8.70;;
62693;SDS011;48759;52.544;13.418;2023-11-21T04:37:15;15.77;;;8.73;;
62693;SDS011;48759;52.544;13.418;2023-11-21T04:40:41;14.50;;;7.90;;
62693;SDS011;48759;52.544;13.418;2023-11-21T04:44:07;11.90;;;8.40;;
62693;SDS011;48759;52.544;13.418;2023-11-21T04:47:36;13.23;;;8.10;;
62693;SDS011;48759;52.544;13.418;2023-11-21T04:51:01;12.20;;;8.60;;
62693;SDS011;48759;52.544;13.418;2023-11-21T04:54:28;12.47;;;8.37;;
62693;SDS011;48759;52.544;13.418;2023-11-21T04:57:55;13.33;;;8.70;;
62693;SDS011;48759;52.544;13.418;2023-11-21T05:01:20;9.43;;;7.43;;
62693;SDS011;48759;52.544;13.418;2023-11-21T05:04:46;12.80;;;8.93;;
62693;SDS011;48759;52.544;13.418;2023-11-21T05:08:11;9.80;;;7.13;;
62693;SDS011;48759;52.544;13.418;2023-11-21T05:11:37;12.07;;;8.47;;
62693;SDS011;48759;52.544;13.418;2023-11-21T05:15:05;12.10;;;7.77;;
62693;SDS011;48759;52.544;13.418;2023-11-21T05:18:32;10.23;;;7.63;;
62693;SDS011;48759;52.544;13.418;2023-11-21T05:21:57;10.77;;;7.87;;
62693;SDS011;48759;52.544;13.418;2023-11-21T05:25:24;9.70;;;7.40;;
62693;SDS011;48759;52.544;13.418;2023-11-21T05:28:49;10.73;;;8.40;;
62693;SDS011;48759;52.544;13.418;2023-11-21T05:32:16;14.67;;;9.10;;
62693;SDS011;48759;52.544;13.418;2023-11-21T05:35:41;16.20;;;8.47;;
62693;SDS011;48759;52.544;13.418;2023-11-21T05:39:06;18.27;;;9.73;;
62693;SDS011;48759;52.544;13.418;2023-11-21T05:42:32;10.10;;;8.27;;
62693;SDS011;48759;52.544;13.418;2023-11-21T05:46:00;10.67;;;8.70;;
62693;SDS011;48759;52.544;13.418;2023-11-21T05:49:27;12.33;;;8.90;;
62693;SDS011;48759;52.544;13.418;2023-11-21T05:52:52;8.00;;;7.17;;
62693;SDS011;48759;52.544;13.418;2023-11-21T05:56:17;10.50;;;7.60;;
62693;SDS011;48759;52.544;13.418;2023-11-21T05:59:43;11.53;;;6.70;;
62693;SDS011;48759;52.544;13.418;2023-11-21T06:03:08;7.73;;;6.17;;
62693;SDS011;48759;52.544;13.418;2023-11-21T06:06:36;9.50;;;6.70;;
62693;SDS011;48759;52.544;13.418;2023-11-21T06:10:01;8.97;;;6.43;;
62693;SDS011;48759;52.544;13.418;2023-11-21T06:13:26;11.97;;;7.47;;
62693;SDS011;48759;52.544;13.418;2023-11-21T06:16:51;11.43;;;7.03;;
62693;SDS011;48759;52.544;13.418;2023-11-21T06:20:18;10.20;;;6.00;;
62693;SDS011;48759;52.544;13.418;2023-11-21T06:23:45;8.87;;;6.23;;
62693;SDS011;48759;52.544;13.418;2023-11-21T06:27:10;6.67;;;6.00;;
62693;SDS011;48759;52.544;13.418;2023-11-21T06:30:35;7.83;;;6.13;;
62693;SDS011;48759;52.544;13.418;2023-11-21T06:34:01;9.27;;;7.03;;
62693;SDS011;48759;52.544;13.418;2023-11-21T06:37:26;8.30;;;6.10;;
62693;SDS011;48759;52.544;13.418;2023-11-21T06:40:56;8.37;;;5.97;;
62693;SDS011;48759;52.544;13.418;2023-11-21T06:44:21;6.87;;;5.60;;
62693;SDS011;48759;52.544;13.418;2023-11-21T06:47:46;5.90;;;4.93;;
62693;SDS011;48759;52.544;13.418;2023-11-21T06:51:13;9.00;;;6.63;;
62693;SDS011;48759;52.544;13.418;2023-11-21T06:54:38;8.60;;;6.33;;
62693;SDS011;48759;52.544;13.418;2023-11-21T06:58:05;9.93;;;6.50;;
62693;SDS011;48759;52.544;13.418;2023-11-21T07:01:31;7.93;;;6.63;;
62693;SDS011;48759;52.544;13.418;2023-11-21T07:04:57;6.70;;;5.60;;
62693;SDS011;48759;52.544;13.418;2023-11-21T07:08:22;7.10;;;5.80;;
62693;SDS011;48759;52.544;13.418;2023-11-21T07:11:47;6.93;;;6.20;;
62693;SDS011;48759;52.544;13.418;2023-11-21T07:15:14;8.63;;;5.80;;
62693;SDS011;48759;52.544;13.418;2023-11-21T07:18:40;5.63;;;5.00;;
62693;SDS011;48759;52.544;13.418;2023-11-21T07:22:06;6.60;;;5.30;;
62693;SDS011;48759;52.544;13.418;2023-11-21T07:25:32;10.20;;;7.33;;
62693;SDS011;48759;52.544;13.418;2023-11-21T07:28:58;14.00;;;8.30;;
62693;SDS011;48759;52.544;13.418;2023-11-21T07:32:25;9.47;;;7.00;;
62693;SDS011;48759;52.544;13.418;2023-11-21T07:35:50;10.17;;;7.60;;
62693;SDS011;48759;52.544;13.418;2023-11-21T07:39:15;9.20;;;7.50;;
62693;SDS011;48759;52.544;13.418;2023-11-21T07:42:42;7.43;;;6.67;;
62693;SDS011;48759;52.544;13.418;2023-11-21T07:46:07;6.70;;;5.70;;
62693;SDS011;48759;52.544;13.418;2023-11-21T07:49:33;5.50;;;5.00;;
62693;SDS011;48759;52.544;13.418;2023-11-21T07:52:59;6.47;;;5.80;;
62693;SDS011;48759;52.544;13.418;2023-11-21T07:56:24;7.90;;;5.27;;
62693;SDS011;48759;52.544;13.418;2023-11-21T07:59:49;7.47;;;5.77;;
62693;SDS011;48759;52.544;13.418;2023-11-21T08:03:15;7.30;;;5.70;;
62693;SDS011;48759;52.544;13.418;2023-11-21T08:06:42;6.13;;;5.30;;
62693;SDS011;48759;52.544;13.418;2023-11-21T08:10:07;7.63;;;5.00;;
62693;SDS011;48759;52.544;13.418;2023-11-21T08:13:35;8.07;;;5.67;;
62693;SDS011;48759;52.544;13.418;2023-11-21T08:17:05;7.57;;;5.10;;
62693;SDS011;48759;52.544;13.418;2023-11-21T08:20:32;7.37;;;4.67;;
62693;SDS011;48759;52.544;13.418;2023-11-21T08:23:59;6.27;;;4.67;;
62693;SDS011;48759;52.544;13.418;2023-11-21T08:27:24;6.87;;;4.27;;
62693;SDS011;48759;52.544;13.418;2023-11-21T08:30:51;6.97;;;4.73;;
62693;SDS011;48759;52.544;13.418;2023-11-21T08:34:16;7.50;;;4.93;;
62693;SDS011;48759;52.544;13.418;2023-11-21T08:37:42;8.83;;;5.23;;
62693;SDS011;48759;52.544;13.418;2023-11-21T08:41:08;8.40;;;5.50;;
62693;SDS011;48759;52.544;13.418;2023-11-21T08:44:33;7.40;;;5.07;;
62693;SDS011;48759;52.544;13.418;2023-11-21T08:47:59;9.13;;;5.20;;
62693;SDS011;48759;52.544;13.418;2023-11-21T08:51:24;8.80;;;4.93;;
62693;SDS011;48759;52.544;13.418;2023-11-21T08:54:49;7.93;;;4.87;;
62693;SDS011;48759;52.544;13.418;2023-11-21T08:58:16;9.10;;;5.97;;
62693;SDS011;48759;52.544;13.418;2023-11-21T09:01:41;11.80;;;6.63;;
62693;SDS011;48759;52.544;13.418;2023-11-21T09:05:07;10.00;;;6.00;;
62693;SDS011;48759;52.544;13.418;2023-11-21T09:08:34;10.30;;;6.97;;
62693;SDS011;48759;52.544;13.418;2023-11-21T09:12:01;11.17;;;6.27;;
62693;SDS011;48759;52.544;13.418;2023-11-21T09:15:27;10.03;;;5.20;;
62693;SDS011;48759;52.544;13.418;2023-11-21T09:18:52;9.13;;;6.30;;
62693;SDS011;48759;52.544;13.418;2023-11-21T09:22:17;11.60;;;6.63;;
62693;SDS011;48759;52.544;13.418;2023-11-21T09:25:43;14.07;;;7.27;;
62693;SDS011;48759;52.544;13.418;2023-11-21T09:29:08;13.87;;;7.17;;
62693;SDS011;48759;52.544;13.418;2023-11-21T09:32:37;18.90;;;7.70;;
62693;SDS011;48759;52.544;13.418;2023-11-21T09:36:03;11.47;;;7.10;;
62693;SDS011;48759;52.544;13.418;2023-11-21T09:39:30;10.53;;;6.20;;
62693;SDS011;48759;52.544;13.418;2023-11-21T09:42:57;12.27;;;6.27;;
62693;SDS011;48759;52.544;13.418;2023-11-21T09:46:24;11.00;;;5.27;;
62693;SDS011;48759;52.544;13.418;2023-11-21T09:49:51;9.83;;;5.30;;
62693;SDS011;48759;52.544;13.418;2023-11-21T09:53:20;4.70;;;4.13;;
62693;SDS011;48759;52.544;13.418;2023-11-21T09:56:46;9.40;;;3.83;;
62693;SDS011;48759;52.544;13.418;2023-11-21T10:00:13;9.63;;;4.50;;
62693;SDS011;48759;52.544;13.418;2023-11-21T10:03:40;8.27;;;4.67;;
62693;SDS011;48759;52.544;13.418;2023-11-21T10:07:06;9.70;;;4.30;;
62693;SDS011;48759;52.544;13.418;2023-11-21T10:10:34;7.63;;;4.60;;
62693;SDS011;48759;52.544;13.418;2023-11-21T10:14:00;7.23;;;4.60;;
62693;SDS011;48759;52.544;13.418;2023-11-21T10:17:27;6.30;;;4.50;;
62693;SDS011;48759;52.544;13.418;2023-11-21T10:20:53;4.73;;;4.17;;
62693;SDS011;48759;52.544;13.418;2023-11-21T10:24:21;6.67;;;3.97;;
62693;SDS011;48759;52.544;13.418;2023-11-21T10:27:47;5.90;;;3.43;;
62693;SDS011;48759;52.544;13.418;2023-11-21T10:31:21;5.50;;;3.30;;
62693;SDS011;48759;52.544;13.418;2023-11-21T10:34:55;3.67;;;3.20;;
62693;SDS011;48759;52.544;13.418;2023-11-21T10:38:20;4.70;;;3.27;;
62693;SDS011;48759;52.544;13.418;2023-11-21T10:41:49;3.60;;;3.30;;
62693;SDS011;48759;52.544;13.418;2023-11-21T10:45:15;3.10;;;2.80;;
62693;SDS011;48759;52.544;13.418;2023-11-21T10:48:42;3.40;;;2.97;;
62693;SDS011;48759;52.544;13.418;2023-11-21T10:52:07;4.13;;;3.73;;
62693;SDS011;48759;52.544;13.418;2023-11-21T10:55:34;3.70;;;3.30;;
62693;SDS011;48759;52.544;13.418;2023-11-21T10:59:07;4.20;;;3.80;;
62693;SDS011;48759;52.544;13.418;2023-11-21T11:02:37;3.40;;;3.10;;
62693;SDS011;48759;52.544;13.418;2023-11-21T11:06:04;4.63;;;3.40;;
62693;SDS011;48759;52.544;13.418;2023-11-21T11:09:34;3.77;;;3.37;;
62693;SDS011;48759;52.544;13.418;2023-11-21T11:13:01;5.20;;;4.20;;
62693;SDS011;48759;52.544;13.418;2023-11-21T11:16:28;5.57;;;3.90;;
62693;SDS011;48759;52.544;13.418;2023-11-21T11:19:53;3.63;;;3.33;;
62693;SDS011;48759;52.544;13.418;2023-11-21T11:23:26;4.33;;;3.17;;
62693;SDS011;48759;52.544;13.418;2023-11-21T11:27:06;17.60;;;7.13;;
62693;SDS011;48759;52.544;13.418;2023-11-21T11:30:41;16.80;;;5.70;;
62693;SDS011;48759;52.544;13.418;2023-11-21T11:34:16;9.00;;;4.77;;
62693;SDS011;48759;52.544;13.418;2023-11-21T11:37:49;4.07;;;3.67;;
62693;SDS011;48759;52.544;13.418;2023-11-21T11:41:15;5.73;;;3.67;;
62693;SDS011;48759;52.544;13.418;2023-11-21T11:44:51;5.03;;;3.50;;
62693;SDS011;48759;52.544;13.418;2023-11-21T11:48:17;8.73;;;4.10;;
62693;SDS011;48759;52.544;13.418;2023-11-21T11:52:03;6.40;;;3.97;;
62693;SDS011;48759;52.544;13.418;2023-11-21T11:55:53;6.50;;;3.67;;
62693;SDS011;48759;52.544;13.418;2023-11-21T11:59:24;4.10;;;3.03;;
62693;SDS011;48759;52.544;13.418;2023-11-21T12:03:02;3.70;;;3.40;;
62693;SDS011;48759;52.544;13.418;2023-11-21T12:06:48;5.20;;;4.07;;
62693;SDS011;48759;52.544;13.418;2023-11-21T12:10:18;8.70;;;3.80;;
62693;SDS011;48759;52.544;13.418;2023-11-21T12:13:44;3.90;;;3.23;;
62693;SDS011;48759;52.544;13.418;2023-11-21T12:17:12;3.20;;;3.00;;
62693;SDS011;48759;52.544;13.418;2023-11-21T12:20:37;3.20;;;3.00;;
62693;SDS011;48759;52.544;13.418;2023-11-21T12:24:03;9.00;;;4.20;;
62693;SDS011;48759;52.544;13.418;2023-11-21T12:27:28;8.87;;;4.70;;
62693;SDS011;48759;52.544;13.418;2023-11-21T12:30:55;4.07;;;3.67;;
62693;SDS011;48759;52.544;13.418;2023-11-21T12:34:21;4.20;;;3.80;;
62693;SDS011;48759;52.544;13.418;2023-11-21T12:37:48;4.00;;;3.67;;
62693;SDS011;48759;52.544;13.418;2023-11-21T12:41:14;4.23;;;3.43;;
62693;SDS011;48759;52.544;13.418;2023-11-21T12:44:40;7.57;;;4.50;;
62693;SDS011;48759;52.544;13.418;2023-11-21T12:48:07;4.10;;;3.70;;
62693;SDS011;48759;52.544;13.418;2023-11-21T12:51:32;3.83;;;3.53;;
62693;SDS011;48759;52.544;13.418;2023-11-21T12:54:58;3.67;;;3.37;;
62693;SDS011;48759;52.544;13.418;2023-11-21T12:58:26;3.53;;;3.23;;
62693;SDS011;48759;52.544;13.418;2023-11-21T13:01:51;8.17;;;4.47;;
62693;SDS011;48759;52.544;13.418;2023-11-21T13:05:30;8.17;;;4.50;;
62693;SDS011;48759;52.544;13.418;2023-11-21T13:08:59;6.30;;;4.30;;
62693;SDS011;48759;52.544;13.418;2023-11-21T13:12:24;4.17;;;3.80;;
62693;SDS011;48759;52.544;13.418;2023-11-21T13:15:53;3.97;;;3.67;;
62693;SDS011;48759;52.544;13.418;2023-11-21T13:19:20;7.50;;;5.20;;
62693;SDS011;48759;52.544;13.418;2023-11-21T13:22:50;11.37;;;5.20;;
62693;SDS011;48759;52.544;13.418;2023-11-21T13:26:18;4.10;;;3.70;;
62693;SDS011;48759;52.544;13.418;2023-11-21T13:29:44;4.40;;;4.00;;
62693;SDS011;48759;52.544;13.418;2023-11-21T13:33:11;4.93;;;4.43;;
62693;SDS011;48759;52.544;13.418;2023-11-21T13:36:39;6.57;;;5.47;;
62693;SDS011;48759;52.544;13.418;2023-11-21T13:40:07;7.80;;;5.70;;
62693;SDS011;48759;52.544;13.418;2023-11-21T13:43:33;8.03;;;5.60;;
62693;SDS011;48759;52.544;13.418;2023-11-21T13:47:03;5.40;;;4.63;;
62693;SDS011;48759;52.544;13.418;2023-11-21T13:50:31;6.37;;;4.93;;
62693;SDS011;48759;52.544;13.418;2023-11-21T13:54:04;6.67;;;5.97;;
62693;SDS011;48759;52.544;13.418;2023-11-21T13:57:33;8.27;;;6.07;;
62693;SDS011;48759;52.544;13.418;2023-11-21T14:01:06;8.00;;;6.40;;
62693;SDS011;48759;52.544;13.418;2023-11-21T14:04:42;8.07;;;6.33;;
62693;SDS011;48759;52.544;13.418;2023-11-21T14:08:08;10.93;;;7.33;;
62693;SDS011;48759;52.544;13.418;2023-11-21T14:11:33;11.03;;;7.37;;
62693;SDS011;48759;52.544;13.418;2023-11-21T14:15:02;9.60;;;7.57;;
62693;SDS011;48759;52.544;13.418;2023-11-21T14:18:28;15.73;;;9.40;;
62693;SDS011;48759;52.544;13.418;2023-11-21T14:21:57;12.83;;;9.87;;
62693;SDS011;48759;52.544;13.418;2023-11-21T14:25:22;13.53;;;9.93;;
62693;SDS011;48759;52.544;13.418;2023-11-21T14:28:51;18.70;;;11.97;;
62693;SDS011;48759;52.544;13.418;2023-11-21T14:32:17;16.80;;;11.60;;
62693;SDS011;48759;52.544;13.418;2023-11-21T14:35:43;13.47;;;10.03;;
62693;SDS011;48759;52.544;13.418;2023-11-21T14:39:09;15.70;;;11.30;;
62693;SDS011;48759;52.544;13.418;2023-11-21T14:42:36;21.63;;;13.90;;
62693;SDS011;48759;52.544;13.418;2023-11-21T14:46:03;25.00;;;13.33;;
62693;SDS011;48759;52.544;13.418;2023-11-21T14:49:32;27.40;;;14.73;;
62693;SDS011;48759;52.544;13.418;2023-11-21T14:53:12;24.30;;;14.90;;
62693;SDS011;48759;52.544;13.418;2023-11-21T14:56:37;15.70;;;11.87;;
62693;SDS011;48759;52.544;13.418;2023-11-21T15:00:01;17.63;;;12.30;;
62693;SDS011;48759;52.544;13.418;2023-11-21T15:03:28;15.90;;;11.50;;
62693;SDS011;48759;52.544;13.418;2023-11-21T15:07:01;17.13;;;12.10;;
62693;SDS011;48759;52.544;13.418;2023-11-21T15:10:40;20.30;;;12.67;;
62693;SDS011;48759;52.544;13.418;2023-11-21T15:14:07;15.33;;;10.50;;
62693;SDS011;48759;52.544;13.418;2023-11-21T15:17:35;20.40;;;10.87;;
62693;SDS011;48759;52.544;13.418;2023-11-21T15:21:03;16.47;;;11.50;;
62693;SDS011;48759;52.544;13.418;2023-11-21T15:24:29;13.57;;;10.70;;
62693;SDS011;48759;52.544;13.418;2023-11-21T15:27:54;17.90;;;11.70;;
62693;SDS011;48759;52.544;13.418;2023-11-21T15:31:19;15.87;;;10.80;;
62693;SDS011;48759;52.544;13.418;2023-11-21T15:34:46;16.17;;;11.60;;
62693;SDS011;48759;52.544;13.418;2023-11-21T15:38:13;19.67;;;12.43;;
62693;SDS011;48759;52.544;13.418;2023-11-21T15:41:38;15.57;;;10.70;;
62693;SDS011;48759;52.544;13.418;2023-11-21T15:45:06;15.67;;;10.77;;
62693;SDS011;48759;52.544;13.418;2023-11-21T15:48:33;19.47;;;13.37;;
62693;SDS011;48759;52.544;13.418;2023-11-21T15:52:02;18.40;;;11.80;;
62693;SDS011;48759;52.544;13.418;2023-11-21T15:55:28;21.07;;;12.27;;
62693;SDS011;48759;52.544;13.418;2023-11-21T15:58:53;14.83;;;10.93;;
62693;SDS011;48759;52.544;13.418;2023-11-21T16:02:19;17.50;;;12.30;;
62693;SDS011;48759;52.544;13.418;2023-11-21T16:05:44;19.53;;;11.80;;
62693;SDS011;48759;52.544;13.418;2023-11-21T16:09:12;19.53;;;12.97;;
62693;SDS011;48759;52.544;13.418;2023-11-21T16:12:40;24.70;;;16.37;;
62693;SDS011;48759;52.544;13.418;2023-11-21T16:16:06;17.03;;;11.10;;
62693;SDS011;48759;52.544;13.418;2023-11-21T16:19:32;20.70;;;11.60;;
62693;SDS011;48759;52.544;13.418;2023-11-21T16:22:57;15.80;;;10.70;;
62693;SDS011;48759;52.544;13.418;2023-11-21T16:26:24;18.50;;;12.30;;
62693;SDS011;48759;52.544;13.418;2023-11-21T16:29:50;16.03;;;11.63;;
62693;SDS011;48759;52.544;13.418;2023-11-21T16:33:16;23.93;;;11.30;;
62693;SDS011;48759;52.544;13.418;2023-11-21T16:36:42;19.73;;;10.47;;
62693;SDS011;48759;52.544;13.418;2023-11-21T16:40:08;13.60;;;10.43;;
62693;SDS011;48759;52.544;13.418;2023-11-21T16:43:38;18.40;;;11.67;;
62693;SDS011;48759;52.544;13.418;2023-11-21T16:47:04;15.00;;;10.90;;
62693;SDS011;48759;52.544;13.418;2023-11-21T16:50:29;15.53;;;11.30;;
62693;SDS011;48759;52.544;13.418;2023-11-21T16:53:54;14.30;;;10.27;;
62693;SDS011;48759;52.544;13.418;2023-11-21T16:57:20;14.17;;;10.80;;
62693;SDS011;48759;52.544;13.418;2023-11-21T17:00:46;14.47;;;10.97;;
62693;SDS011;48759;52.544;13.418;2023-11-21T17:04:12;28.90;;;14.40;;
62693;SDS011;48759;52.544;13.418;2023-11-21T17:07:37;16.83;;;10.23;;
62693;SDS011;48759;52.544;13.418;2023-11-21T17:11:03;10.80;;;8.20;;
62693;SDS011;48759;52.544;13.418;2023-11-21T17:14:30;14.30;;;10.47;;
62693;SDS011;48759;52.544;13.418;2023-11-21T17:17:57;14.77;;;11.17;;
62693;SDS011;48759;52.544;13.418;2023-11-21T17:21:23;13.70;;;9.80;;
62693;SDS011;48759;52.544;13.418;2023-11-21T17:24:48;12.13;;;9.63;;
62693;SDS011;48759;52.544;13.418;2023-11-21T17:28:13;12.90;;;9.10;;
62693;SDS011;48759;52.544;13.418;2023-11-21T17:31:39;14.13;;;9.00;;
62693;SDS011;48759;52.544;13.418;2023-11-21T17:35:06;14.53;;;9.80;;
62693;SDS011;48759;52.544;13.418;2023-11-21T17:38:31;15.83;;;10.03;;
62693;SDS011;48759;52.544;13.418;2023-11-21T17:41:56;11.43;;;8.73;;
62693;SDS011;48759;52.544;13.418;2023-11-21T17:45:22;13.80;;;9.00;;
62693;SDS011;48759;52.544;13.418;2023-11-21T17:48:47;15.23;;;9.90;;
62693;SDS011;48759;52.544;13.418;2023-11-21T17:52:15;14.23;;;9.43;;
62693;SDS011;48759;52.544;13.418;2023-11-21T17:55:41;12.27;;;8.50;;
62693;SDS011;48759;52.544;13.418;2023-11-21T17:59:06;11.17;;;8.40;;
62693;SDS011;48759;52.544;13.418;2023-11-21T18:02:34;15.23;;;9.50;;
62693;SDS011;48759;52.544;13.418;2023-11-21T18:06:00;11.90;;;8.93;;
62693;SDS011;48759;52.544;13.418;2023-11-21T18:09:27;12.40;;;8.63;;
62693;SDS011;48759;52.544;13.418;2023-11-21T18:12:53;16.83;;;9.30;;
62693;SDS011;48759;52.544;13.418;2023-11-21T18:16:19;13.37;;;8.93;;
62693;SDS011;48759;52.544;13.418;2023-11-21T18:19:45;13.00;;;9.03;;
62693;SDS011;48759;52.544;13.418;2023-11-21T18:23:12;14.60;;;9.07;;
62693;SDS011;48759;52.544;13.418;2023-11-21T18:26:41;17.40;;;10.10;;
62693;SDS011;48759;52.544;13.418;2023-11-21T18:30:08;20.13;;;10.27;;
62693;SDS011;48759;52.544;13.418;2023-11-21T18:33:37;14.43;;;9.47;;
62693;SDS011;48759;52.544;13.418;2023-11-21T18:37:07;18.93;;;8.43;;
62693;SDS011;48759;52.544;13.418;2023-11-21T18:40:41;12.60;;;9.17;;
62693;SDS011;48759;52.544;13.418;2023-11-21T18:44:14;13.47;;;9.37;;
62693;SDS011;48759;52.544;13.418;2023-11-21T18:47:42;12.70;;;8.20;;
62693;SDS011;48759;52.544;13.418;2023-11-21T18:51:14;15.07;;;7.90;;
62693;SDS011;48759;52.544;13.418;2023-11-21T18:54:40;11.63;;;7.57;;
62693;SDS011;48759;52.544;13.418;2023-11-21T18:58:10;11.40;;;7.83;;
62693;SDS011;48759;52.544;13.418;2023-11-21T19:01:37;11.07;;;7.53;;
62693;SDS011;48759;52.544;13.418;2023-11-21T19:05:05;13.30;;;8.10;;
62693;SDS011;48759;52.544;13.418;2023-11-21T19:08:34;12.10;;;7.73;;
62693;SDS011;48759;52.544;13.418;2023-11-21T19:12:00;10.90;;;7.50;;
62693;SDS011;48759;52.544;13.418;2023-11-21T19:15:29;11.47;;;8.40;;
62693;SDS011;48759;52.544;13.418;2023-11-21T19:18:55;10.67;;;6.87;;
62693;SDS011;48759;52.544;13.418;2023-11-21T19:22:22;14.30;;;8.77;;
62693;SDS011;48759;52.544;13.418;2023-11-21T19:25:51;11.10;;;8.20;;
62693;SDS011;48759;52.544;13.418;2023-11-21T19:29:18;11.87;;;7.63;;
62693;SDS011;48759;52.544;13.418;2023-11-21T19:32:49;9.00;;;7.13;;
62693;SDS011;48759;52.544;13.418;2023-11-21T19:36:23;10.47;;;6.40;;
62693;SDS011;48759;52.544;13.418;2023-11-21T19:40:09;12.03;;;8.10;;
62693;SDS011;48759;52.544;13.418;2023-11-21T19:43:50;13.47;;;7.27;;
62693;SDS011;48759;52.544;13.418;2023-11-21T19:47:26;9.37;;;6.60;;
62693;SDS011;48759;52.544;13.418;2023-11-21T19:50:53;9.43;;;7.13;;
62693;SDS011;48759;52.544;13.418;2023-11-21T19:54:20;9.60;;;6.57;;
62693;SDS011;48759;52.544;13.418;2023-11-21T19:57:47;9.00;;;6.87;;
62693;SDS011;48759;52.544;13.418;2023-11-21T20:01:16;13.70;;;7.57;;
62693;SDS011;48759;52.544;13.418;2023-11-21T20:04:44;10.17;;;7.30;;
62693;SDS011;48759;52.544;13.418;2023-11-21T20:08:12;11.90;;;7.67;;
62693;SDS011;48759;52.544;13.418;2023-11-21T20:11:37;12.50;;;6.93;;